ID Time Temp Humidity Light PM2.5 PM10 Voltage Extra Firmware Position Fcnt TTN version Gateways Distance RSSI LSNR Radiosettings
2026-05-09 07:26:09 7.0625°C 118.938% 3.3V v254 52.12 / 5.07657 3735 ttn.v3 0.112km -101 0 867.5MHz, SF10BW125, 4/5CR
- -108 -11 867.5MHz, SF10BW125, 4/5CR
2026-05-09 07:09:37 6.1875°C 118.938% 3.3V v254 52.12 / 5.07657 3734 ttn.v3 0.112km -99 2.5 868.5MHz, SF10BW125, 4/5CR
2026-05-09 06:53:04 5.875°C 118.938% 3.3V v254 52.12 / 5.07657 3733 ttn.v3 0.112km -101 -2.25 867.3MHz, SF10BW125, 4/5CR
- -111 -6.5 867.3MHz, SF10BW125, 4/5CR
2026-05-09 06:36:32 5.625°C 118.938% 3.3V v254 52.12 / 5.07657 3732 ttn.v3 0.112km -97 2 868.3MHz, SF10BW125, 4/5CR
2026-05-09 06:20:00 5.4375°C 118.938% 3.3V v254 52.12 / 5.07657 3731 ttn.v3 - -112 -4.25 867.1MHz, SF10BW125, 4/5CR
0.112km -92 -15.5 867.1MHz, SF10BW125, 4/5CR
2026-05-09 06:03:28 5.375°C 118.938% 3.3V v254 52.12 / 5.07657 3730 ttn.v3 0.112km -100 1 868.1MHz, SF10BW125, 4/5CR
5.901km -108 -12.75 868.1MHz, SF10BW125, 4/5CR
- -114 -12.75 868.1MHz, SF10BW125, 4/5CR
2026-05-09 05:46:56 5.375°C 118.938% 3.3V v254 52.12 / 5.07657 3729 ttn.v3 0.112km -100 1.75 867.9MHz, SF10BW125, 4/5CR
5.901km -109 -9.5 867.9MHz, SF10BW125, 4/5CR
5.956km -132 -15.75 867.9MHz, SF10BW125, 4/5CR
2026-05-09 05:30:23 5.5625°C 118.938% 3.3V v254 52.12 / 5.07657 3728 ttn.v3 0.112km -97 2.5 868.5MHz, SF10BW125, 4/5CR
2026-05-09 05:13:51 5.75°C 118.938% 3.3V v254 52.12 / 5.07657 3727 ttn.v3 0.112km -101 1.5 867.7MHz, SF10BW125, 4/5CR
- -114 -11.75 867.7MHz, SF10BW125, 4/5CR
5.901km -101 -14.25 867.7MHz, SF10BW125, 4/5CR
2026-05-09 04:57:19 5.8125°C 118.938% 3.3V v254 52.12 / 5.07657 3726 ttn.v3 0.112km -98 2.75 868.3MHz, SF10BW125, 4/5CR
- -112 -12.5 868.3MHz, SF10BW125, 4/5CR
2026-05-09 04:40:47 6°C 118.938% 3.3V v254 52.12 / 5.07657 3725 ttn.v3 0.112km -101 -0.25 867.5MHz, SF10BW125, 4/5CR
- -109 -11.25 867.5MHz, SF10BW125, 4/5CR
2026-05-09 04:24:15 6.125°C 118.938% 3.29V v254 52.12 / 5.07657 3724 ttn.v3 0.112km -101 2 868.1MHz, SF10BW125, 4/5CR
- -114 -10 868.1MHz, SF10BW125, 4/5CR
2026-05-09 04:07:42 6.3125°C 118.938% 3.3V v254 52.12 / 5.07657 3723 ttn.v3 - -113 -6 867.3MHz, SF10BW125, 4/5CR
0.112km -90 -15.75 867.3MHz, SF10BW125, 4/5CR
2026-05-09 03:51:10 6.5°C 118.938% 3.3V v254 52.12 / 5.07657 3722 ttn.v3 0.112km -101 0 868.5MHz, SF10BW125, 4/5CR
2026-05-09 03:34:38 6.8125°C 118.938% 3.3V v254 52.12 / 5.07657 3721 ttn.v3 0.112km -103 -3.25 867.1MHz, SF10BW125, 4/5CR
- -113 -4 867.1MHz, SF10BW125, 4/5CR
2026-05-09 03:18:06 7.1875°C 118.938% 3.3V v254 52.12 / 5.07657 3720 ttn.v3 0.112km -101 2 868.3MHz, SF10BW125, 4/5CR
- -111 -13 868.3MHz, SF10BW125, 4/5CR
2026-05-09 03:01:34 7.5625°C 118.938% 3.3V v254 52.12 / 5.07657 3719 ttn.v3 0.112km -100 2.5 867.9MHz, SF10BW125, 4/5CR
5.901km -110 -8 867.9MHz, SF10BW125, 4/5CR
- -113 -10.75 867.9MHz, SF10BW125, 4/5CR
2026-05-09 02:45:01 7.8125°C 118.938% 3.3V v254 52.12 / 5.07657 3718 ttn.v3 0.112km -101 2.75 868.1MHz, SF10BW125, 4/5CR
- -115 -11.25 868.1MHz, SF10BW125, 4/5CR
5.901km -104 -12 868.1MHz, SF10BW125, 4/5CR
2026-05-09 02:28:29 8.0625°C 118.938% 3.3V v254 52.12 / 5.07657 3717 ttn.v3 0.112km -101 1 867.7MHz, SF10BW125, 4/5CR
5.901km -105 -11.5 867.7MHz, SF10BW125, 4/5CR
2026-05-09 02:11:57 8.3125°C 118.938% 3.3V v254 52.12 / 5.07657 3716 ttn.v3 0.112km -100 3.25 868.5MHz, SF10BW125, 4/5CR
2026-05-09 01:55:25 8.625°C 118.938% 3.3V v254 52.12 / 5.07657 3715 ttn.v3 0.112km -102 0.25 867.5MHz, SF10BW125, 4/5CR
- -113 -9.75 867.5MHz, SF10BW125, 4/5CR
2026-05-09 01:38:53 9°C 118.938% 3.3V v254 52.12 / 5.07657 3714 ttn.v3 0.112km -100 3 868.3MHz, SF10BW125, 4/5CR
- -114 -15 868.3MHz, SF10BW125, 4/5CR
2026-05-09 01:22:21 9.1875°C 118.938% 3.3V v254 52.12 / 5.07657 3713 ttn.v3 0.112km -102 -2.25 867.3MHz, SF10BW125, 4/5CR
- -113 -10 867.3MHz, SF10BW125, 4/5CR
2026-05-09 01:05:49 9.1875°C 118.938% 3.3V v254 52.12 / 5.07657 3712 ttn.v3 0.112km -101 2.5 868.1MHz, SF10BW125, 4/5CR
- -113 -10.5 868.1MHz, SF10BW125, 4/5CR
2026-05-09 00:49:16 9.3125°C 118.938% 3.3V v254 52.12 / 5.07657 3711 ttn.v3 0.112km -105 -5.75 867.1MHz, SF10BW125, 4/5CR
- -112 -6.25 867.1MHz, SF10BW125, 4/5CR
5.901km -107 -13.75 867.1MHz, SF10BW125, 4/5CR
5.956km -134 -17.5 867.1MHz, SF10BW125, 4/5CR
2026-05-09 00:32:44 9.25°C 118.938% 3.3V v254 52.12 / 5.07657 3710 ttn.v3 0.112km -93 -9.75 868.5MHz, SF10BW125, 4/5CR
2026-05-09 00:16:12 8.8125°C 118.938% 3.3V v254 52.12 / 5.07657 3709 ttn.v3 0.112km -102 -0.5 867.9MHz, SF10BW125, 4/5CR
5.901km -110 -5 867.9MHz, SF10BW125, 4/5CR
- -113 -14.5 867.9MHz, SF10BW125, 4/5CR
2026-05-08 23:59:40 8.75°C 118.938% 3.3V v254 52.12 / 5.07657 3708 ttn.v3 0.112km -101 0.5 868.3MHz, SF10BW125, 4/5CR
2026-05-08 23:43:08 9°C 118.938% 3.3V v254 52.12 / 5.07657 3707 ttn.v3 0.112km -100 -1 867.7MHz, SF10BW125, 4/5CR
- -113 -11.25 867.7MHz, SF10BW125, 4/5CR
2026-05-08 23:26:36 9.25°C 118.938% 3.3V v254 52.12 / 5.07657 3706 ttn.v3 0.112km -100 2.75 868.1MHz, SF10BW125, 4/5CR
- -113 -12.25 868.1MHz, SF10BW125, 4/5CR
2026-05-08 23:10:03 9.4375°C 118.938% 3.3V v254 52.12 / 5.07657 3705 ttn.v3 0.112km -101 -1.5 867.5MHz, SF10BW125, 4/5CR
2026-05-08 22:53:31 9.75°C 118.938% 3.3V v254 52.12 / 5.07657 3704 ttn.v3 0.112km -99 3.25 868.5MHz, SF10BW125, 4/5CR
2026-05-08 22:36:59 10.0625°C 118.938% 3.3V v254 52.12 / 5.07657 3703 ttn.v3 0.112km -103 -3.75 867.3MHz, SF10BW125, 4/5CR
- -113 -7.25 867.3MHz, SF10BW125, 4/5CR
2026-05-08 22:20:27 10.4375°C 118.938% 3.3V v254 52.12 / 5.07657 3702 ttn.v3 0.112km -90 -8.5 868.3MHz, SF10BW125, 4/5CR
2026-05-08 22:03:55 10.875°C 118.938% 3.3V v254 52.12 / 5.07657 3701 ttn.v3 0.112km -102 -1 867.1MHz, SF10BW125, 4/5CR
- -114 -6.75 867.1MHz, SF10BW125, 4/5CR
2026-05-08 21:47:23 11.25°C 118.938% 3.3V v254 52.12 / 5.07657 3700 ttn.v3 0.112km -101 3.25 868.1MHz, SF10BW125, 4/5CR
2026-05-08 21:30:51 11.875°C 118.938% 3.28V v254 52.12 / 5.07657 3699 ttn.v3 0.112km -101 2.75 867.9MHz, SF10BW125, 4/5CR
- -114 -15 867.9MHz, SF10BW125, 4/5CR
2026-05-08 21:14:18 12.6875°C 118.938% 3.28V v254 52.12 / 5.07657 3698 ttn.v3 0.112km -100 2.5 868.5MHz, SF10BW125, 4/5CR
2026-05-08 20:57:46 13.3125°C 118.938% 3.28V v254 52.12 / 5.07657 3697 ttn.v3 0.112km -99 0.75 867.7MHz, SF10BW125, 4/5CR
- -112 -13.75 867.7MHz, SF10BW125, 4/5CR
2026-05-08 20:41:14 14.0625°C 118.938% 3.28V v254 52.12 / 5.07657 3696 ttn.v3 0.112km -101 2.5 868.3MHz, SF10BW125, 4/5CR
2026-05-08 20:24:42 14.5625°C 118.938% 3.28V v254 52.12 / 5.07657 3695 ttn.v3 0.112km -100 -1.5 867.5MHz, SF10BW125, 4/5CR
- -112 -9.5 867.5MHz, SF10BW125, 4/5CR
2026-05-08 20:08:09 14.9375°C 118.938% 3.28V v254 52.12 / 5.07657 3694 ttn.v3 0.112km -100 2.5 868.1MHz, SF10BW125, 4/5CR
2026-05-08 19:51:37 15.3125°C 118.938% 3.28V v254 52.12 / 5.07657 3693 ttn.v3 - -109 -8.75 867.3MHz, SF10BW125, 4/5CR
0.112km -91 -12.75 867.3MHz, SF10BW125, 4/5CR
2026-05-08 19:35:05 16°C 118.938% 3.29V v254 52.12 / 5.07657 3692 ttn.v3 0.112km -93 -12.5 868.5MHz, SF10BW125, 4/5CR
2026-05-08 19:18:32 16.375°C 118.938% 3.28V v254 52.12 / 5.07657 3691 ttn.v3 - -113 -6.25 867.1MHz, SF10BW125, 4/5CR
0.112km -95 -11.75 867.1MHz, SF10BW125, 4/5CR
2026-05-08 19:02:00 16.375°C 118.938% 3.28V v254 52.12 / 5.07657 3690 ttn.v3 0.112km -90 -9.75 868.3MHz, SF10BW125, 4/5CR
2026-05-08 18:45:27 16.5°C 118.938% 3.28V v254 52.12 / 5.07657 3689 ttn.v3 0.112km -100 2.5 867.9MHz, SF10BW125, 4/5CR
2026-05-08 18:28:54 16.6875°C 118.938% 3.29V v254 52.12 / 5.07657 3688 ttn.v3 0.112km -93 -10 868.1MHz, SF10BW125, 4/5CR
5.956km -131 -17 868.1MHz, SF10BW125, 4/5CR
2026-05-08 18:12:22 16.75°C 118.938% 3.28V v254 52.12 / 5.07657 3687 ttn.v3 0.112km -101 -1.5 867.7MHz, SF10BW125, 4/5CR
- -112 -13.5 867.7MHz, SF10BW125, 4/5CR
2026-05-08 17:55:49 16.8125°C 118.938% 3.28V v254 52.12 / 5.07657 3686 ttn.v3 0.112km -101 1.25 868.5MHz, SF10BW125, 4/5CR
2026-05-08 17:39:17 16.9375°C 116.188% 3.29V v254 52.12 / 5.07657 3685 ttn.v3 0.112km -102 0.25 867.5MHz, SF10BW125, 4/5CR
- -112 -12 867.5MHz, SF10BW125, 4/5CR
2026-05-08 17:22:44 17.125°C 92.25% 3.29V v254 52.12 / 5.07657 3684 ttn.v3 0.112km -93 -9 868.3MHz, SF10BW125, 4/5CR
2026-05-08 17:06:12 17.25°C 101% 3.29V v254 52.12 / 5.07657 3683 ttn.v3 - -113 -11.25 867.3MHz, SF10BW125, 4/5CR
0.112km -94 -13.25 867.3MHz, SF10BW125, 4/5CR
2026-05-08 16:49:39 17.5°C 93.6875% 3.29V v254 52.12 / 5.07657 3682 ttn.v3 0.112km -103 0.75 868.1MHz, SF10BW125, 4/5CR
5.901km -99 -14 868.1MHz, SF10BW125, 4/5CR
2026-05-08 16:33:07 17.4375°C 111.75% 3.29V v254 52.12 / 5.07657 3681 ttn.v3 0.112km -102 -3 867.1MHz, SF10BW125, 4/5CR
- -114 -6.25 867.1MHz, SF10BW125, 4/5CR
2026-05-08 16:16:34 17.375°C 86% 3.29V v254 52.12 / 5.07657 3680 ttn.v3 0.112km -103 -1.25 868.5MHz, SF10BW125, 4/5CR
2026-05-08 16:00:01 17.375°C 101.938% 3.29V v254 52.12 / 5.07657 3679 ttn.v3 0.112km -101 2 867.9MHz, SF10BW125, 4/5CR
5.901km -113 -10 867.9MHz, SF10BW125, 4/5CR
- -114 -13.25 867.9MHz, SF10BW125, 4/5CR
2026-05-08 15:43:29 17.625°C 90.4375% 3.29V v254 52.12 / 5.07657 3678 ttn.v3 0.112km -101 -2.75 868.3MHz, SF10BW125, 4/5CR
2026-05-08 15:26:56 17.8125°C 84.5% 3.29V v254 52.12 / 5.07657 3677 ttn.v3 0.112km -102 -1 867.7MHz, SF10BW125, 4/5CR
2026-05-08 15:10:23 17.8125°C 79.9375% 3.29V v254 52.12 / 5.07657 3676 ttn.v3 - -113 -6.75 868.1MHz, SF10BW125, 4/5CR
0.112km -94 -10.5 868.1MHz, SF10BW125, 4/5CR
2026-05-08 14:53:51 17.9375°C 91.4375% 3.29V v254 52.12 / 5.07657 3675 ttn.v3 0.112km -102 -1.75 867.5MHz, SF10BW125, 4/5CR
- -113 -3.25 867.5MHz, SF10BW125, 4/5CR
2026-05-08 14:37:18 18.0625°C 83.1875% 3.29V v254 52.12 / 5.07657 3674 ttn.v3 0.112km -102 -1.25 868.5MHz, SF10BW125, 4/5CR
- -111 -9.5 868.5MHz, SF10BW125, 4/5CR
2026-05-08 14:20:45 18.25°C 90.9375% 3.29V v254 52.12 / 5.07657 3673 ttn.v3 0.112km -102 -5 867.3MHz, SF10BW125, 4/5CR
- -113 -8.5 867.3MHz, SF10BW125, 4/5CR
2026-05-08 14:04:13 18.3125°C 82% 3.29V v254 52.12 / 5.07657 3672 ttn.v3 0.112km -97 1.75 868.3MHz, SF10BW125, 4/5CR
2026-05-08 13:47:40 18°C 72.875% 3.29V v254 52.12 / 5.07657 3671 ttn.v3 0.112km -101 1 867.1MHz, SF10BW125, 4/5CR
- -113 -2.5 867.1MHz, SF10BW125, 4/5CR
2026-05-08 13:31:07 18.0625°C 86.625% 3.29V v254 52.12 / 5.07657 3670 ttn.v3 0.112km -101 2.5 868.1MHz, SF10BW125, 4/5CR
- -115 -15.5 868.1MHz, SF10BW125, 4/5CR
2026-05-08 13:14:35 18.3125°C 91.5625% 3.29V v254 52.12 / 5.07657 3669 ttn.v3 0.112km -102 -1.5 867.9MHz, SF10BW125, 4/5CR
- -113 -8.5 867.9MHz, SF10BW125, 4/5CR
2026-05-08 12:58:02 19.75°C 81.25% 3.29V v254 52.12 / 5.07657 3668 ttn.v3 0.112km -102 -2.5 868.5MHz, SF10BW125, 4/5CR
2026-05-08 12:41:29 19.125°C 77.75% 3.29V v254 52.12 / 5.07657 3667 ttn.v3 0.112km -102 0 867.7MHz, SF10BW125, 4/5CR
- -112 -9.75 867.7MHz, SF10BW125, 4/5CR
2026-05-08 12:24:56 18.375°C 101.938% 3.29V v254 52.12 / 5.07657 3666 ttn.v3 0.112km -101 2.25 868.3MHz, SF10BW125, 4/5CR
2026-05-08 12:08:24 17.6875°C 108.312% 3.29V v254 52.12 / 5.07657 3665 ttn.v3 0.112km -102 -4 867.5MHz, SF10BW125, 4/5CR
- -112 -9.75 867.5MHz, SF10BW125, 4/5CR
2026-05-08 11:51:51 17.3125°C 118.938% 3.28V v254 52.12 / 5.07657 3664 ttn.v3 0.112km -102 0.5 868.1MHz, SF10BW125, 4/5CR
5.956km -128 -19 868.1MHz, SF10BW125, 4/5CR
2026-05-08 11:35:19 16.1875°C 118.938% 3.28V v254 52.12 / 5.07657 3663 ttn.v3 0.112km -102 0.5 867.3MHz, SF10BW125, 4/5CR
- -110 -10.75 867.3MHz, SF10BW125, 4/5CR
2026-05-08 11:18:46 15.6875°C 118.938% 3.28V v254 52.12 / 5.07657 3662 ttn.v3 0.112km -91 -12.5 868.5MHz, SF10BW125, 4/5CR
2026-05-08 11:02:14 15.5°C 118.938% 3.28V v254 52.12 / 5.07657 3661 ttn.v3 - -114 -5.5 867.1MHz, SF10BW125, 4/5CR
0.112km -94 -15.5 867.1MHz, SF10BW125, 4/5CR
2026-05-08 10:45:41 15.125°C 118.938% 3.28V v254 52.12 / 5.07657 3660 ttn.v3 0.112km -101 1.5 868.3MHz, SF10BW125, 4/5CR
2026-05-08 10:29:09 14.5°C 118.938% 3.28V v254 52.12 / 5.07657 3659 ttn.v3 0.112km -102 1.5 867.9MHz, SF10BW125, 4/5CR
- -114 -9.5 867.9MHz, SF10BW125, 4/5CR
2026-05-08 10:12:37 13.6875°C 118.938% 3.28V v254 52.12 / 5.07657 3658 ttn.v3 0.112km -100 2.5 868.1MHz, SF10BW125, 4/5CR
- -114 -13.25 868.1MHz, SF10BW125, 4/5CR
5.901km -110 -13.5 868.1MHz, SF10BW125, 4/5CR
2026-05-08 09:56:05 13.25°C 118.938% 3.28V v254 52.12 / 5.07657 3657 ttn.v3 - -113 -8.25 867.7MHz, SF10BW125, 4/5CR
5.901km -106 -10.25 867.7MHz, SF10BW125, 4/5CR
0.112km -93 -13.75 867.7MHz, SF10BW125, 4/5CR
2026-05-08 09:39:32 12.4375°C 118.938% 3.3V v254 52.12 / 5.07657 3656 ttn.v3 0.112km -102 -0.25 868.5MHz, SF10BW125, 4/5CR
- -113 -8.75 868.5MHz, SF10BW125, 4/5CR
2026-05-08 09:23:00 11.5625°C 118.938% 3.3V v254 52.12 / 5.07657 3655 ttn.v3 0.112km -103 -7.5 867.5MHz, SF10BW125, 4/5CR
2026-05-08 09:06:28 10.875°C 118.938% 3.3V v254 52.12 / 5.07657 3654 ttn.v3 0.112km -99 3.75 868.3MHz, SF10BW125, 4/5CR
- -113 -9.25 868.3MHz, SF10BW125, 4/5CR
2026-05-08 08:49:56 10.5625°C 118.938% 3.3V v254 52.12 / 5.07657 3653 ttn.v3 - -113 -6.25 867.3MHz, SF10BW125, 4/5CR
2026-05-08 08:33:24 10.25°C 118.938% 3.3V v254 52.12 / 5.07657 3652 ttn.v3 5.901km -109 -11.5 868.1MHz, SF10BW125, 4/5CR
- -115 -12.5 868.1MHz, SF10BW125, 4/5CR
0.112km -95 -14.75 868.1MHz, SF10BW125, 4/5CR
2026-05-08 08:16:52 9.9375°C 118.938% 3.3V v254 52.12 / 5.07657 3651 ttn.v3 - -113 -6 867.1MHz, SF10BW125, 4/5CR
0.112km -92 -13.75 867.1MHz, SF10BW125, 4/5CR
2026-05-08 08:00:19 9.625°C 118.938% 3.3V v254 52.12 / 5.07657 3650 ttn.v3 0.112km -98 1.75 868.5MHz, SF10BW125, 4/5CR
- -112 -11.5 868.5MHz, SF10BW125, 4/5CR
2026-05-08 07:43:47 9.4375°C 118.938% 3.3V v254 52.12 / 5.07657 3649 ttn.v3 0.112km -102 0 867.9MHz, SF10BW125, 4/5CR
- -115 -9.25 867.9MHz, SF10BW125, 4/5CR
5.901km -109 -11.5 867.9MHz, SF10BW125, 4/5CR
5.956km -131 -15 867.9MHz, SF10BW125, 4/5CR
2026-05-08 07:28:11 9.3125°C 118.938% 3.28V v254 52.12 / 5.07657 3648 ttn.v3 - -114 -10.25 868.3MHz, SF12BW125, 4/5CR
0.112km -93 -10.5 868.3MHz, SF12BW125, 4/5CR
2026-05-08 07:10:48 9.1875°C 118.938% 3.3V v254 52.1199 / 5.07657 3647 ttn.v3 0.103km -101 1 867.7MHz, SF10BW125, 4/5CR
- -114 -14 867.7MHz, SF10BW125, 4/5CR
2026-05-08 06:54:16 9.0625°C 118.938% 3.3V v254 52.1199 / 5.07657 3646 ttn.v3 0.103km -101 1.25 868.1MHz, SF10BW125, 4/5CR
- -114 -8.75 868.1MHz, SF10BW125, 4/5CR
2026-05-08 06:37:44 9.125°C 118.938% 3.3V v254 52.1199 / 5.07657 3645 ttn.v3 0.103km -102 -3.25 867.5MHz, SF10BW125, 4/5CR
- -113 -6 867.5MHz, SF10BW125, 4/5CR
2026-05-08 06:21:12 9.1875°C 118.938% 3.3V v254 52.1199 / 5.07657 3644 ttn.v3 - -112 -9.75 868.5MHz, SF10BW125, 4/5CR
0.103km -93 -12 868.5MHz, SF10BW125, 4/5CR
2026-05-08 06:04:39 9.25°C 118.938% 3.3V v254 52.1199 / 5.07657 3643 ttn.v3 - -113 -7 867.3MHz, SF10BW125, 4/5CR
0.103km -105 -9 867.3MHz, SF10BW125, 4/5CR
2026-05-08 05:48:07 9.375°C 118.938% 3.3V v254 52.1199 / 5.07657 3642 ttn.v3 0.103km -97 3 868.3MHz, SF10BW125, 4/5CR
- -112 -12 868.3MHz, SF10BW125, 4/5CR
2026-05-08 05:31:35 9.5625°C 118.938% 3.3V v254 52.1199 / 5.07657 3641 ttn.v3 - -113 -3 867.1MHz, SF10BW125, 4/5CR
2026-05-08 05:15:03 9.6875°C 118.938% 3.3V v254 52.1199 / 5.07657 3640 ttn.v3 0.103km -94 -12 868.1MHz, SF10BW125, 4/5CR
- -119 -13.75 868.1MHz, SF10BW125, 4/5CR
2026-05-08 04:58:31 9.75°C 118.938% 3.3V v254 52.1199 / 5.07657 3639 ttn.v3 0.103km -103 -2 867.9MHz, SF10BW125, 4/5CR
- -114 -10 867.9MHz, SF10BW125, 4/5CR
5.896km -109 -12.5 867.9MHz, SF10BW125, 4/5CR
5.945km -132 -15.75 867.9MHz, SF10BW125, 4/5CR
2026-05-08 04:41:59 9.8125°C 118.938% 3.3V v254 52.1199 / 5.07657 3638 ttn.v3 0.103km -93 -9 868.5MHz, SF10BW125, 4/5CR
2026-05-08 04:25:26 9.875°C 118.938% 3.3V v254 52.1199 / 5.07657 3637 ttn.v3 0.103km -102 -0.75 867.7MHz, SF10BW125, 4/5CR
2026-05-08 04:08:54 10°C 118.938% 3.3V v254 52.1199 / 5.07657 3636 ttn.v3 0.103km -100 1.75 868.3MHz, SF10BW125, 4/5CR
- -112 -10.75 868.3MHz, SF10BW125, 4/5CR
2026-05-08 03:52:22 10.125°C 118.938% 3.3V v254 52.1199 / 5.07657 3635 ttn.v3 0.103km -103 -4 867.5MHz, SF10BW125, 4/5CR
- -109 -9.25 867.5MHz, SF10BW125, 4/5CR
2026-05-08 03:35:50 10.3125°C 118.938% 3.3V v254 52.1199 / 5.07657 3634 ttn.v3 0.103km -102 2 868.1MHz, SF10BW125, 4/5CR
- -114 -12.5 868.1MHz, SF10BW125, 4/5CR
2026-05-08 03:19:18 10.4375°C 118.938% 3.3V v254 52.1199 / 5.07657 3633 ttn.v3 0.103km -102 -6.25 867.3MHz, SF10BW125, 4/5CR
- -113 -8 867.3MHz, SF10BW125, 4/5CR
2026-05-08 03:02:45 10.625°C 118.938% 3.3V v254 52.1199 / 5.07657 3632 ttn.v3 0.103km -99 1.25 868.5MHz, SF10BW125, 4/5CR
5.945km -125 -16 868.5MHz, SF10BW125, 4/5CR
2026-05-08 02:46:13 10.75°C 118.938% 3.3V v254 52.1199 / 5.07657 3631 ttn.v3 0.103km -105 -11.75 867.1MHz, SF10BW125, 4/5CR
2026-05-08 02:29:41 10.8125°C 118.938% 3.3V v254 52.1199 / 5.07657 3630 ttn.v3 0.103km -99 2.75 868.3MHz, SF10BW125, 4/5CR
2026-05-08 02:13:09 10.9375°C 118.938% 3.3V v254 52.1199 / 5.07657 3629 ttn.v3 0.103km -102 0 867.9MHz, SF10BW125, 4/5CR
5.896km -108 -8.25 867.9MHz, SF10BW125, 4/5CR
- -114 -15 867.9MHz, SF10BW125, 4/5CR
5.945km -133 -16 867.9MHz, SF10BW125, 4/5CR
2026-05-08 01:56:37 11.0625°C 118.938% 3.3V v254 52.1199 / 5.07657 3628 ttn.v3 - -114 -9.25 868.1MHz, SF10BW125, 4/5CR
0.103km -95 -11.5 868.1MHz, SF10BW125, 4/5CR
5.945km -129 -13.75 868.1MHz, SF10BW125, 4/5CR
2026-05-08 01:40:05 11.125°C 118.938% 3.3V v254 52.1199 / 5.07657 3627 ttn.v3 - -112 -8 867.7MHz, SF10BW125, 4/5CR
5.945km -130 -13.25 867.7MHz, SF10BW125, 4/5CR
0.103km -93 -14.75 867.7MHz, SF10BW125, 4/5CR
2026-05-08 01:23:32 11.25°C 118.938% 3.3V v254 52.1199 / 5.07657 3626 ttn.v3 0.103km -93 -8.75 868.5MHz, SF10BW125, 4/5CR
- -112 -10.75 868.5MHz, SF10BW125, 4/5CR
2026-05-08 01:07:00 11.4375°C 118.938% 3.3V v254 52.1199 / 5.07657 3625 ttn.v3 - -113 -6.5 867.5MHz, SF10BW125, 4/5CR
2026-05-08 00:50:28 11.5°C 118.938% 3.3V v254 52.1199 / 5.07657 3624 ttn.v3 - -113 -14 868.3MHz, SF10BW125, 4/5CR
2026-05-08 00:33:56 11.5625°C 118.938% 3.3V v254 52.1199 / 5.07657 3623 ttn.v3 - -113 -9.5 867.3MHz, SF10BW125, 4/5CR
5.896km -103 -12 867.3MHz, SF10BW125, 4/5CR
2026-05-08 00:17:24 11.6875°C 118.938% 3.3V v254 52.1199 / 5.07657 3622 ttn.v3 - -114 -11.75 868.1MHz, SF10BW125, 4/5CR
0.103km -95 -12.75 868.1MHz, SF10BW125, 4/5CR
2026-05-08 00:00:52 11.875°C 118.938% 3.3V v254 52.1199 / 5.07657 3621 ttn.v3 5.945km -132 -16.25 867.1MHz, SF10BW125, 4/5CR
0.103km -106 -17.5 867.1MHz, SF10BW125, 4/5CR
2026-05-07 23:44:19 11.875°C 118.938% 3.3V v254 52.1199 / 5.07657 3620 ttn.v3 0.103km -91 -12.5 868.5MHz, SF10BW125, 4/5CR
5.945km -126 -16 868.5MHz, SF10BW125, 4/5CR
2026-05-07 23:27:47 12°C 118.938% 3.3V v254 52.1199 / 5.07657 3619 ttn.v3 0.103km -106 -2 867.9MHz, SF10BW125, 4/5CR
- -115 -12 867.9MHz, SF10BW125, 4/5CR
2026-05-07 23:11:15 12.1875°C 118.938% 3.28V v254 52.1199 / 5.07657 3618 ttn.v3 0.103km -100 2.5 868.3MHz, SF10BW125, 4/5CR
- -114 -16.75 868.3MHz, SF10BW125, 4/5CR
2026-05-07 22:54:43 12.375°C 118.938% 3.28V v254 52.1199 / 5.07657 3617 ttn.v3 0.103km -103 -4.75 867.7MHz, SF10BW125, 4/5CR
- -114 -12 867.7MHz, SF10BW125, 4/5CR
2026-05-07 22:38:11 12.5°C 118.938% 3.28V v254 52.1199 / 5.07657 3616 ttn.v3 0.103km -102 2 868.1MHz, SF10BW125, 4/5CR
2026-05-07 22:21:38 12.6875°C 118.938% 3.28V v254 52.1199 / 5.07657 3615 ttn.v3 - -112 -6.75 867.5MHz, SF10BW125, 4/5CR
0.103km -93 -17.25 867.5MHz, SF10BW125, 4/5CR
2026-05-07 22:05:06 13°C 118.938% 3.28V v254 52.1199 / 5.07657 3614 ttn.v3 0.103km -99 0.75 868.5MHz, SF10BW125, 4/5CR
2026-05-07 21:48:34 13.1875°C 118.938% 3.28V v254 52.1199 / 5.07657 3613 ttn.v3 - -112 -6.5 867.3MHz, SF10BW125, 4/5CR
2026-05-07 21:32:02 13.375°C 118.938% 3.28V v254 52.1199 / 5.07657 3612 ttn.v3 0.103km -103 -1.25 868.3MHz, SF10BW125, 4/5CR
2026-05-07 21:15:29 13.625°C 118.938% 3.28V v254 52.1199 / 5.07657 3611 ttn.v3 - -114 -6.5 867.1MHz, SF10BW125, 4/5CR
0.103km -106 -8.5 867.1MHz, SF10BW125, 4/5CR
2026-05-07 20:58:57 13.875°C 118.938% 3.28V v254 52.1199 / 5.07657 3610 ttn.v3 0.103km -103 0.25 868.1MHz, SF10BW125, 4/5CR
2026-05-07 20:42:25 13.9375°C 118.938% 3.28V v254 52.1199 / 5.07657 3609 ttn.v3 0.103km -103 -1 867.9MHz, SF10BW125, 4/5CR
- -113 -14.5 867.9MHz, SF10BW125, 4/5CR
2026-05-07 20:25:53 14.1875°C 118.938% 3.28V v254 52.1199 / 5.07657 3608 ttn.v3 0.103km -93 -13.25 868.5MHz, SF10BW125, 4/5CR
2026-05-07 20:09:20 14.3125°C 118.938% 3.28V v254 52.1199 / 5.07657 3607 ttn.v3 0.103km -103 -3 867.7MHz, SF10BW125, 4/5CR
5.896km -107 -11 867.7MHz, SF10BW125, 4/5CR
- -114 -15 867.7MHz, SF10BW125, 4/5CR
5.945km -132 -15.75 867.7MHz, SF10BW125, 4/5CR
2026-05-07 19:52:48 14.5°C 118.938% 3.28V v254 52.1199 / 5.07657 3606 ttn.v3 0.103km -102 -0.5 868.3MHz, SF10BW125, 4/5CR
2026-05-07 19:36:16 14.625°C 118.938% 3.28V v254 52.1199 / 5.07657 3605 ttn.v3 - -112 -11.5 867.5MHz, SF10BW125, 4/5CR
2026-05-07 19:03:11 15.0625°C 97% 3.28V v254 52.1199 / 5.07657 3603 ttn.v3 - -114 -9.25 867.3MHz, SF10BW125, 4/5CR
2026-05-07 18:46:39 15.375°C 90.1875% 3.28V v254 52.1199 / 5.07657 3602 ttn.v3 - -106 -11.25 868.5MHz, SF10BW125, 4/5CR
0.103km -91 -15.75 868.5MHz, SF10BW125, 4/5CR
2026-05-07 18:30:06 15.8125°C 87.4375% 3.28V v254 52.1199 / 5.07657 3601 ttn.v3 - -112 -5.75 867.1MHz, SF10BW125, 4/5CR
2026-05-07 18:13:34 16.5625°C 84.6875% 3.29V v254 52.1199 / 5.07657 3600 ttn.v3 0.103km -100 1 868.3MHz, SF10BW125, 4/5CR
2026-05-07 17:57:01 17.0625°C 81.6875% 3.29V v254 52.1199 / 5.07657 3599 ttn.v3 0.103km -102 -1.75 867.9MHz, SF10BW125, 4/5CR
2026-05-07 17:40:29 17.125°C 74.0625% 3.29V v254 52.1199 / 5.07657 3598 ttn.v3 0.103km -105 -1.5 868.1MHz, SF10BW125, 4/5CR
- -115 -15.75 868.1MHz, SF10BW125, 4/5CR
2026-05-07 17:23:56 17°C 75.875% 3.29V v254 52.1199 / 5.07657 3597 ttn.v3 - -114 -13 867.7MHz, SF10BW125, 4/5CR
0.103km -94 -15.5 867.7MHz, SF10BW125, 4/5CR
2026-05-07 17:07:24 16.625°C 78% 3.29V v254 52.1199 / 5.07657 3596 ttn.v3 0.103km -98 -1.5 868.5MHz, SF10BW125, 4/5CR
2026-05-07 16:50:51 16.1875°C 81.9375% 3.28V v254 52.1199 / 5.07657 3595 ttn.v3 0.103km -105 -10.25 867.5MHz, SF10BW125, 4/5CR
- -111 -10.5 867.5MHz, SF10BW125, 4/5CR
2026-05-07 16:34:19 16.1875°C 78% 3.29V v254 52.1199 / 5.07657 3594 ttn.v3 0.103km -91 -9.75 868.3MHz, SF10BW125, 4/5CR
2026-05-07 16:17:46 16.25°C 72.375% 3.29V v254 52.1199 / 5.07657 3593 ttn.v3 - -110 -3.75 867.3MHz, SF10BW125, 4/5CR
0.103km -92 -12.75 867.3MHz, SF10BW125, 4/5CR
2026-05-07 16:01:14 16.875°C 66.3125% 3.29V v254 52.1199 / 5.07657 3592 ttn.v3 0.103km -101 1 868.1MHz, SF10BW125, 4/5CR
- -114 -10.5 868.1MHz, SF10BW125, 4/5CR
2026-05-07 15:44:41 16.9375°C 68.625% 3.29V v254 52.1199 / 5.07657 3591 ttn.v3 0.103km -101 0.75 867.1MHz, SF10BW125, 4/5CR
- -113 -11.5 867.1MHz, SF10BW125, 4/5CR
2026-05-07 15:28:09 16.75°C 72.125% 3.29V v254 52.1199 / 5.07657 3590 ttn.v3 0.103km -101 2 868.5MHz, SF10BW125, 4/5CR
2026-05-07 15:11:36 16.3125°C 79.6875% 3.28V v254 52.1199 / 5.07657 3589 ttn.v3 0.103km -100 1.75 867.9MHz, SF10BW125, 4/5CR
- -115 -9.5 867.9MHz, SF10BW125, 4/5CR
5.896km -109 -10.75 867.9MHz, SF10BW125, 4/5CR
2026-05-07 14:55:04 16.1875°C 86.3125% 3.28V v254 52.1199 / 5.07657 3588 ttn.v3 0.103km -102 -2.25 868.3MHz, SF10BW125, 4/5CR
2026-05-07 14:38:31 16.1875°C 85.25% 3.29V v254 52.1199 / 5.07657 3587 ttn.v3 0.103km -101 1.25 867.7MHz, SF10BW125, 4/5CR
- -113 -14.5 867.7MHz, SF10BW125, 4/5CR
2026-05-07 14:21:59 16.625°C 81.5625% 3.28V v254 52.1199 / 5.07657 3586 ttn.v3 0.103km -102 -2 868.1MHz, SF10BW125, 4/5CR
5.896km -107 -8 868.1MHz, SF10BW125, 4/5CR
- -115 -13 868.1MHz, SF10BW125, 4/5CR
2026-05-07 14:05:26 17.1875°C 78.1875% 3.29V v254 52.1199 / 5.07657 3585 ttn.v3 0.103km -102 -1.25 867.5MHz, SF10BW125, 4/5CR
- -111 -13.75 867.5MHz, SF10BW125, 4/5CR
2026-05-07 13:48:54 17°C 79.125% 3.29V v254 52.1199 / 5.07657 3584 ttn.v3 - -113 -10.25 868.5MHz, SF10BW125, 4/5CR
0.103km -93 -10.75 868.5MHz, SF10BW125, 4/5CR
2026-05-07 13:32:21 17.4375°C 86.9375% 3.29V v254 52.1199 / 5.07657 3583 ttn.v3 0.103km -94 -8.75 867.3MHz, SF10BW125, 4/5CR
- -112 -10.25 867.3MHz, SF10BW125, 4/5CR
5.896km -105 -13.25 867.3MHz, SF10BW125, 4/5CR
2026-05-07 13:15:49 18.25°C 82.3125% 3.29V v254 52.1199 / 5.07657 3582 ttn.v3 0.103km -93 -9.25 868.3MHz, SF10BW125, 4/5CR
- -113 -12.25 868.3MHz, SF10BW125, 4/5CR
2026-05-07 12:59:16 18.5°C 75.5625% 3.29V v254 52.1199 / 5.07657 3581 ttn.v3 - -111 -2.75 867.1MHz, SF10BW125, 4/5CR
0.103km -94 -12 867.1MHz, SF10BW125, 4/5CR
2026-05-07 12:42:44 18.1875°C 75.0625% 3.29V v254 52.1199 / 5.07657 3580 ttn.v3 0.103km -95 -9.5 868.1MHz, SF10BW125, 4/5CR
2026-05-07 12:26:11 18°C 80.8125% 3.29V v254 52.1199 / 5.07657 3579 ttn.v3 - -112 -5 867.9MHz, SF10BW125, 4/5CR
0.103km -93 -12 867.9MHz, SF10BW125, 4/5CR
5.945km -131 -16.75 867.9MHz, SF10BW125, 4/5CR
2026-05-07 12:09:39 17.1875°C 92.625% 3.29V v254 52.1199 / 5.07657 3578 ttn.v3 - -111 -7.75 868.5MHz, SF10BW125, 4/5CR
0.103km -93 -11.75 868.5MHz, SF10BW125, 4/5CR
2026-05-07 11:53:06 15.75°C 118.938% 3.28V v254 52.1199 / 5.07657 3577 ttn.v3 - -114 -9 867.7MHz, SF10BW125, 4/5CR
2026-05-07 11:36:34 14.5°C 118.938% 3.28V v254 52.1199 / 5.07657 3576 ttn.v3 0.103km -89 -10.5 868.3MHz, SF10BW125, 4/5CR
2026-05-07 11:20:02 14.125°C 118.938% 3.28V v254 52.1199 / 5.07657 3575 ttn.v3 - -111 -5.5 867.5MHz, SF10BW125, 4/5CR
0.103km -94 -13.75 867.5MHz, SF10BW125, 4/5CR
2026-05-07 11:03:29 13.875°C 118.938% 3.28V v254 52.1199 / 5.07657 3574 ttn.v3 0.103km -94 -10.75 868.1MHz, SF10BW125, 4/5CR
2026-05-07 10:46:57 14.0625°C 118.938% 3.28V v254 52.1199 / 5.07657 3573 ttn.v3 0.103km -101 -1.5 867.3MHz, SF10BW125, 4/5CR
- -113 -6.5 867.3MHz, SF10BW125, 4/5CR
2026-05-07 10:13:52 14.75°C 118.938% 3.28V v254 52.1199 / 5.07657 3571 ttn.v3 0.103km -101 -0.75 867.1MHz, SF10BW125, 4/5CR
2026-05-07 09:57:20 15.375°C 118.938% 3.28V v254 52.1199 / 5.07657 3570 ttn.v3 0.103km -98 -0.25 868.3MHz, SF10BW125, 4/5CR
- -114 -12 868.3MHz, SF10BW125, 4/5CR
2026-05-07 09:40:48 16.5625°C 91.25% 3.29V v254 52.1199 / 5.07657 3569 ttn.v3 0.103km -101 0.5 867.9MHz, SF10BW125, 4/5CR
- -114 -5.25 867.9MHz, SF10BW125, 4/5CR
2026-05-07 09:24:15 16.375°C 96.1875% 3.29V v254 52.1199 / 5.07657 3568 ttn.v3 0.103km -101 -0.5 868.1MHz, SF10BW125, 4/5CR
5.945km -128 -16.75 868.1MHz, SF10BW125, 4/5CR
2026-05-07 09:07:43 16.125°C 118.938% 3.28V v254 52.1199 / 5.07657 3567 ttn.v3 0.103km -101 -5.75 867.7MHz, SF10BW125, 4/5CR
2026-05-07 08:51:10 14.5°C 118.938% 3.28V v254 52.1199 / 5.07657 3566 ttn.v3 0.103km -100 -0.75 868.5MHz, SF10BW125, 4/5CR
2026-05-07 08:34:38 14°C 118.938% 3.28V v254 52.1199 / 5.07657 3565 ttn.v3 0.103km -101 -2.25 867.5MHz, SF10BW125, 4/5CR
- -109 -6 867.5MHz, SF10BW125, 4/5CR
2026-05-07 08:18:06 13.3125°C 118.938% 3.28V v254 52.1199 / 5.07657 3564 ttn.v3 0.103km -100 -2.25 868.3MHz, SF10BW125, 4/5CR
2026-05-07 08:01:34 12.5°C 118.938% 3.3V v254 52.1199 / 5.07657 3563 ttn.v3 0.103km -100 -1.25 867.3MHz, SF10BW125, 4/5CR
- -110 -4.5 867.3MHz, SF10BW125, 4/5CR
2026-05-07 07:45:02 11.375°C 118.938% 3.3V v254 52.1199 / 5.07657 3562 ttn.v3 0.103km -100 0.75 868.1MHz, SF10BW125, 4/5CR
5.896km -111 -13 868.1MHz, SF10BW125, 4/5CR
- -114 -15 868.1MHz, SF10BW125, 4/5CR
2026-05-07 07:28:29 7.1875°C 118.938% 3.3V v254 52.1199 / 5.07657 3561 ttn.v3 0.103km -100 -0.75 867.1MHz, SF10BW125, 4/5CR
- -114 -4.25 867.1MHz, SF10BW125, 4/5CR
2026-05-07 07:11:57 6.375°C 118.938% 3.3V v254 52.1199 / 5.07657 3560 ttn.v3 0.103km -97 1 868.5MHz, SF10BW125, 4/5CR
2026-05-07 06:55:25 6.1875°C 118.938% 3.29V v254 52.1199 / 5.07657 3559 ttn.v3 0.103km -100 0.25 867.9MHz, SF10BW125, 4/5CR
- -130 -15 867.9MHz, SF10BW125, 4/5CR
5.945km -133 -16 867.9MHz, SF10BW125, 4/5CR
2026-05-07 06:22:21 5.625°C 118.938% 3.3V v254 52.1199 / 5.07657 3557 ttn.v3 0.103km -99 -0.5 867.7MHz, SF10BW125, 4/5CR
- -114 -9 867.7MHz, SF10BW125, 4/5CR
5.945km -131 -17.25 867.7MHz, SF10BW125, 4/5CR
2026-05-07 06:05:49 5.4375°C 118.938% 3.3V v254 52.1199 / 5.07657 3556 ttn.v3 0.103km -100 2 868.1MHz, SF10BW125, 4/5CR
- -113 -11.5 868.1MHz, SF10BW125, 4/5CR
2026-05-07 05:49:17 5.4375°C 118.938% 3.3V v254 52.1199 / 5.07657 3555 ttn.v3 0.103km -100 -1.5 867.5MHz, SF10BW125, 4/5CR
- -109 -8.25 867.5MHz, SF10BW125, 4/5CR
2026-05-07 05:32:44 5.375°C 118.938% 3.3V v254 52.1199 / 5.07657 3554 ttn.v3 0.103km -98 -1.25 868.5MHz, SF10BW125, 4/5CR
- -113 -15.5 868.5MHz, SF10BW125, 4/5CR
2026-05-07 05:16:12 5.5°C 118.938% 3.3V v254 52.1199 / 5.07657 3553 ttn.v3 0.103km -99 -1.5 867.3MHz, SF10BW125, 4/5CR
- -113 -7.5 867.3MHz, SF10BW125, 4/5CR
5.945km -133 -17.25 867.3MHz, SF10BW125, 4/5CR
2026-05-07 05:00:28 5.625°C 118.938% 3.27V v254 52.1199 / 5.07657 3552 ttn.v3 0.103km -99 1.5 868.3MHz, SF12BW125, 4/5CR
- -113 -11.25 868.3MHz, SF12BW125, 4/5CR
2026-05-07 04:43:12 5.875°C 118.938% 3.3V v254 52.1198 / 5.07669 3551 ttn.v3 0.09km -101 -0.5 867.1MHz, SF10BW125, 4/5CR
- -114 -6.25 867.1MHz, SF10BW125, 4/5CR
2026-05-07 04:26:40 6.25°C 118.938% 3.3V v254 52.1198 / 5.07669 3550 ttn.v3 0.09km -101 1.25 868.1MHz, SF10BW125, 4/5CR
5.883km -105 -13 868.1MHz, SF10BW125, 4/5CR
2026-05-07 04:10:08 6.5625°C 118.938% 3.3V v254 52.1198 / 5.07669 3549 ttn.v3 0.09km -101 0.25 867.9MHz, SF10BW125, 4/5CR
5.883km -102 -12.5 867.9MHz, SF10BW125, 4/5CR
- -114 -14.5 867.9MHz, SF10BW125, 4/5CR
2026-05-07 03:53:35 6.8125°C 118.938% 3.3V v254 52.1198 / 5.07669 3548 ttn.v3 0.09km -97 0.25 868.5MHz, SF10BW125, 4/5CR
- -112 -14.75 868.5MHz, SF10BW125, 4/5CR
2026-05-07 03:37:03 7°C 118.938% 3.3V v254 52.1198 / 5.07669 3547 ttn.v3 0.09km -100 -1.5 867.7MHz, SF10BW125, 4/5CR
- -113 -9.25 867.7MHz, SF10BW125, 4/5CR
2026-05-07 03:20:31 7.125°C 118.938% 3.3V v254 52.1198 / 5.07669 3546 ttn.v3 0.09km -97 -0.25 868.3MHz, SF10BW125, 4/5CR
- -113 -11.25 868.3MHz, SF10BW125, 4/5CR
2026-05-07 03:03:59 7.4375°C 118.938% 3.3V v254 52.1198 / 5.07669 3545 ttn.v3 0.09km -101 -2.75 867.5MHz, SF10BW125, 4/5CR
- -108 -8.5 867.5MHz, SF10BW125, 4/5CR
2026-05-07 02:47:27 7.75°C 118.938% 3.3V v254 52.1198 / 5.07669 3544 ttn.v3 0.09km -99 0.75 868.1MHz, SF10BW125, 4/5CR
- -114 -16.25 868.1MHz, SF10BW125, 4/5CR
2026-05-07 02:30:55 8°C 118.938% 3.3V v254 52.1198 / 5.07669 3543 ttn.v3 0.09km -101 -4 867.3MHz, SF10BW125, 4/5CR
- -112 -7 867.3MHz, SF10BW125, 4/5CR
5.934km -133 -16.75 867.3MHz, SF10BW125, 4/5CR
2026-05-07 02:14:22 8.3125°C 118.938% 3.3V v254 52.1198 / 5.07669 3542 ttn.v3 0.09km -101 0 868.5MHz, SF10BW125, 4/5CR
2026-05-07 01:57:50 8.5625°C 118.938% 3.3V v254 52.1198 / 5.07669 3541 ttn.v3 0.09km -101 -3.75 867.1MHz, SF10BW125, 4/5CR
- -113 -5.75 867.1MHz, SF10BW125, 4/5CR
2026-05-07 01:41:18 9.125°C 118.938% 3.3V v254 52.1198 / 5.07669 3540 ttn.v3 0.09km -101 -1 868.3MHz, SF10BW125, 4/5CR
- -113 -12.75 868.3MHz, SF10BW125, 4/5CR
2026-05-07 01:24:46 9.5625°C 118.938% 3.3V v254 52.1198 / 5.07669 3539 ttn.v3 0.09km -101 -2.25 867.9MHz, SF10BW125, 4/5CR
- -114 -11.75 867.9MHz, SF10BW125, 4/5CR
5.883km -110 -12 867.9MHz, SF10BW125, 4/5CR
2026-05-07 01:08:14 9.875°C 118.938% 3.3V v254 52.1198 / 5.07669 3538 ttn.v3 0.09km -99 1.25 868.1MHz, SF10BW125, 4/5CR
5.934km -130 -17 868.1MHz, SF10BW125, 4/5CR
2026-05-07 00:51:42 10.125°C 118.938% 3.3V v254 52.1198 / 5.07669 3537 ttn.v3 0.09km -100 -1.75 867.7MHz, SF10BW125, 4/5CR
- -112 -8.5 867.7MHz, SF10BW125, 4/5CR
5.934km -129 -12.75 867.7MHz, SF10BW125, 4/5CR
5.883km -105 -12.75 867.7MHz, SF10BW125, 4/5CR
2026-05-07 00:35:09 10.375°C 118.938% 3.3V v254 52.1198 / 5.07669 3536 ttn.v3 0.09km -101 -4.5 868.5MHz, SF10BW125, 4/5CR
- -111 -11.25 868.5MHz, SF10BW125, 4/5CR
2026-05-07 00:18:37 10.5°C 118.938% 3.3V v254 52.1198 / 5.07669 3535 ttn.v3 - -109 -2.75 867.5MHz, SF10BW125, 4/5CR
0.09km -102 -7.75 867.5MHz, SF10BW125, 4/5CR
2026-05-07 00:02:05 10.625°C 118.938% 3.3V v254 52.1198 / 5.07669 3534 ttn.v3 0.09km -100 -1.25 868.3MHz, SF10BW125, 4/5CR
- -112 -14.75 868.3MHz, SF10BW125, 4/5CR
2026-05-06 23:45:33 10.8125°C 118.938% 3.3V v254 52.1198 / 5.07669 3533 ttn.v3 0.09km -100 -2 867.3MHz, SF10BW125, 4/5CR
- -106 -5.25 867.3MHz, SF10BW125, 4/5CR

Message count: 200
Node count: 1

Messages per node

Number of messages in list aboveNodes
200

Statistics per gateway

GatewayNumber of messagesNumber of nodesNodes
1901 (0.09km)
1351
261 (5.883km)
211 (5.934km)
11

Filter by dataset